createdAt,value
2018-07-19T00:01:25.546Z,16.70
2018-07-19T00:03:55.809Z,16.60
2018-07-19T00:06:26.132Z,16.50
2018-07-19T00:08:56.528Z,16.40
2018-07-19T00:11:26.988Z,16.40
2018-07-19T00:13:57.397Z,16.30
2018-07-19T00:16:27.739Z,16.40
2018-07-19T00:18:58.066Z,16.30
2018-07-19T00:21:28.282Z,16.30
2018-07-19T00:23:58.580Z,16.20
2018-07-19T00:26:28.854Z,16.20
2018-07-19T00:28:59.164Z,16.20
2018-07-19T00:31:29.414Z,16.30
2018-07-19T00:33:59.790Z,16.20
2018-07-19T00:36:30.027Z,16.10
2018-07-19T00:39:00.346Z,16.20
2018-07-19T00:41:30.649Z,16.20
2018-07-19T00:44:01.055Z,16.10
2018-07-19T00:46:31.343Z,16.10
2018-07-19T00:49:01.650Z,16.20
2018-07-19T00:51:31.985Z,16.30
2018-07-19T00:54:02.292Z,16.30
2018-07-19T00:56:32.606Z,16.30
2018-07-19T00:59:02.941Z,16.30
2018-07-19T01:01:33.261Z,16.40
2018-07-19T01:04:03.616Z,16.40
2018-07-19T01:06:33.938Z,16.40
2018-07-19T01:09:07.060Z,16.40
2018-07-19T01:11:37.560Z,16.50
2018-07-19T01:14:08.513Z,16.40
2018-07-19T01:16:38.840Z,16.30
2018-07-19T01:19:09.205Z,16.20
2018-07-19T01:24:09.913Z,15.90
2018-07-19T01:26:40.174Z,15.90
2018-07-19T01:29:10.561Z,15.90
2018-07-19T01:31:40.856Z,15.90
2018-07-19T01:34:11.135Z,15.90
2018-07-19T01:36:41.744Z,15.80
2018-07-19T01:39:12.742Z,15.70
2018-07-19T01:42:29.705Z,15.60
2018-07-19T01:44:59.975Z,15.70
2018-07-19T01:47:30.358Z,15.70
2018-07-19T01:50:00.647Z,15.60
2018-07-19T01:52:30.952Z,15.50
2018-07-19T01:55:01.227Z,15.40
2018-07-19T01:57:31.526Z,15.40
2018-07-19T02:00:01.829Z,15.30
2018-07-19T02:02:32.163Z,15.30
2018-07-19T02:05:02.463Z,15.40
2018-07-19T02:07:36.022Z,15.40
2018-07-19T02:10:06.419Z,15.40
2018-07-19T02:12:36.766Z,15.50
2018-07-19T02:15:07.554Z,15.50
2018-07-19T02:17:37.833Z,15.50
2018-07-19T02:20:08.110Z,15.50
2018-07-19T02:22:38.411Z,15.50
2018-07-19T02:25:08.676Z,15.60
2018-07-19T02:27:38.977Z,15.60
2018-07-19T02:30:09.219Z,15.60
2018-07-19T02:32:39.514Z,15.50
2018-07-19T02:37:39.698Z,15.40
2018-07-19T02:40:09.987Z,15.30
2018-07-19T02:42:40.272Z,15.20
2018-07-19T02:45:10.522Z,15.00
2018-07-19T02:50:10.644Z,15.00
2018-07-19T02:52:40.963Z,14.90
2018-07-19T02:55:11.222Z,14.90
2018-07-19T02:57:41.551Z,14.90
2018-07-19T03:00:11.789Z,15.00
2018-07-19T03:02:42.104Z,15.00
2018-07-19T03:05:12.330Z,15.00
2018-07-19T03:07:42.735Z,15.00
2018-07-19T03:10:13.082Z,15.00
2018-07-19T03:12:43.541Z,14.90
2018-07-19T03:15:13.826Z,14.80
2018-07-19T03:17:44.362Z,14.80
2018-07-19T03:20:14.632Z,14.90
2018-07-19T03:25:14.868Z,14.90
2018-07-19T03:27:45.277Z,14.90
2018-07-19T03:30:15.590Z,14.80
2018-07-19T03:32:46.714Z,14.80
2018-07-19T03:35:16.989Z,14.80
2018-07-19T03:40:17.102Z,14.80
2018-07-19T03:42:47.338Z,14.80
2018-07-19T03:45:17.659Z,14.80
2018-07-19T03:47:47.893Z,14.80
2018-07-19T03:50:18.231Z,14.70
2018-07-19T03:52:48.479Z,14.60
2018-07-19T03:55:18.790Z,14.60
2018-07-19T03:57:49.067Z,14.60
2018-07-19T04:02:54.630Z,14.60
2018-07-19T04:05:28.409Z,14.60
2018-07-19T04:07:59.713Z,14.70
2018-07-19T04:10:30.173Z,14.70
2018-07-19T04:13:00.433Z,14.70
2018-07-19T04:15:30.789Z,14.60
2018-07-19T04:18:01.081Z,14.60
2018-07-19T04:23:02.357Z,14.50
2018-07-19T04:28:02.506Z,14.60
2018-07-19T04:30:32.803Z,14.60
2018-07-19T04:33:03.109Z,14.60
2018-07-19T04:35:33.450Z,14.80
2018-07-19T04:38:03.774Z,14.70
2018-07-19T04:40:34.098Z,14.70
2018-07-19T04:43:04.330Z,14.60
2018-07-19T04:45:34.695Z,14.70
2018-07-19T04:48:05.095Z,14.70
2018-07-19T04:50:35.387Z,14.80
2018-07-19T04:53:05.678Z,14.90
2018-07-19T04:55:36.001Z,15.00
2018-07-19T04:58:06.246Z,15.00
2018-07-19T05:00:36.533Z,15.20
2018-07-19T05:03:06.902Z,15.40
2018-07-19T05:05:37.652Z,15.50
2018-07-19T05:08:08.034Z,15.70
2018-07-19T05:10:38.462Z,15.80
2018-07-19T05:13:08.770Z,15.80
2018-07-19T05:15:39.080Z,15.90
2018-07-19T05:18:10.125Z,15.80
2018-07-19T05:20:40.950Z,15.90
2018-07-19T05:23:11.253Z,16.00
2018-07-19T05:25:41.589Z,15.90
2018-07-19T05:28:13.461Z,16.10
2018-07-19T05:30:45.378Z,16.20
2018-07-19T05:33:15.736Z,16.30
2018-07-19T05:35:46.146Z,16.40
2018-07-19T05:38:16.464Z,16.50
2018-07-19T05:40:46.810Z,16.60
2018-07-19T05:43:17.105Z,16.70
2018-07-19T05:45:47.967Z,16.90
2018-07-19T05:48:18.556Z,17.00
2018-07-19T05:50:48.898Z,17.20
2018-07-19T05:53:19.410Z,17.50
2018-07-19T05:55:50.034Z,17.70
2018-07-19T05:58:20.757Z,17.90
2018-07-19T06:00:52.039Z,18.10
2018-07-19T06:03:22.440Z,18.20
2018-07-19T06:05:53.036Z,18.50
2018-07-19T06:08:23.430Z,18.70
2018-07-19T06:10:54.521Z,18.90
2018-07-19T06:13:25.154Z,19.10
2018-07-19T06:15:55.817Z,19.30
2018-07-19T06:18:26.367Z,19.50
2018-07-19T06:20:56.814Z,19.60
2018-07-19T06:23:27.373Z,19.80
2018-07-19T06:25:58.302Z,20.10
2018-07-19T06:28:28.775Z,20.30
2018-07-19T06:30:59.159Z,20.40
2018-07-19T06:33:29.570Z,20.50
2018-07-19T06:36:00.109Z,20.70
2018-07-19T06:38:30.417Z,20.90
2018-07-19T06:41:00.730Z,21.10
2018-07-19T06:43:31.023Z,21.40
2018-07-19T06:46:01.393Z,21.50
2018-07-19T06:48:31.690Z,21.80
2018-07-19T06:51:02.073Z,22.00
2018-07-19T06:53:32.369Z,22.20
2018-07-19T06:56:03.002Z,22.40
2018-07-19T06:58:33.299Z,22.50
2018-07-19T07:01:03.685Z,22.70
2018-07-19T07:03:33.941Z,22.90
2018-07-19T07:06:04.478Z,23.10
2018-07-19T07:08:35.026Z,23.20
2018-07-19T07:11:05.894Z,23.30
2018-07-19T07:13:36.196Z,23.30
2018-07-19T07:16:06.908Z,23.30
2018-07-19T07:18:37.371Z,23.30
2018-07-19T07:21:07.750Z,23.50
2018-07-19T07:23:38.133Z,23.50
2018-07-19T07:26:08.497Z,23.40
2018-07-19T07:28:43.046Z,23.50
2018-07-19T07:31:13.303Z,23.60
2018-07-19T07:33:43.613Z,23.70
2018-07-19T07:36:13.974Z,24.00
2018-07-19T07:38:44.661Z,24.20
2018-07-19T07:41:25.908Z,24.40
2018-07-19T07:43:56.440Z,24.50
2018-07-19T07:46:26.702Z,24.60
2018-07-19T07:48:57.053Z,24.90
2018-07-19T07:51:27.350Z,25.10
2018-07-19T07:53:57.779Z,25.30
2018-07-19T07:56:28.054Z,25.40
2018-07-19T07:58:58.355Z,25.50
2018-07-19T08:01:28.788Z,25.70
2018-07-19T08:03:59.143Z,25.90
2018-07-19T08:06:29.454Z,26.00
2018-07-19T08:08:59.838Z,26.00
2018-07-19T08:11:30.323Z,26.10
2018-07-19T08:14:00.677Z,26.20
2018-07-19T08:16:31.005Z,26.30
2018-07-19T08:19:01.398Z,26.40
2018-07-19T08:21:31.677Z,26.30
2018-07-19T08:24:01.995Z,26.30
2018-07-19T08:26:32.286Z,26.30
2018-07-19T08:29:02.634Z,26.50
2018-07-19T08:31:32.918Z,26.70
2018-07-19T08:34:03.345Z,26.90
2018-07-19T08:36:33.657Z,27.00
2018-07-19T08:39:04.944Z,27.20
2018-07-19T08:41:35.197Z,27.40
2018-07-19T08:44:05.901Z,27.50
2018-07-19T08:46:36.939Z,27.60
2018-07-19T08:49:07.473Z,27.70
2018-07-19T08:51:38.136Z,27.80
2018-07-19T08:54:08.410Z,28.00
2018-07-19T08:56:38.935Z,28.10
2018-07-19T08:59:09.368Z,28.00
2018-07-19T09:01:39.740Z,28.00
2018-07-19T09:04:12.154Z,28.10
2018-07-19T09:06:45.503Z,28.30
2018-07-19T09:09:15.813Z,28.50
2018-07-19T09:11:46.143Z,28.70
2018-07-19T09:14:23.114Z,28.70
2018-07-19T09:16:53.863Z,28.90
2018-07-19T09:19:24.154Z,28.90
2018-07-19T09:21:54.471Z,28.90
2018-07-19T09:24:24.737Z,29.00
2018-07-19T09:26:55.107Z,29.10
2018-07-19T09:29:25.413Z,29.00
2018-07-19T09:31:55.746Z,29.00
2018-07-19T09:34:26.046Z,29.20
2018-07-19T09:36:56.328Z,29.30
2018-07-19T09:39:26.631Z,29.40
2018-07-19T09:41:57.014Z,29.60
2018-07-19T09:44:27.325Z,29.60
2018-07-19T09:46:57.622Z,29.90
2018-07-19T09:49:27.931Z,30.00
2018-07-19T09:51:58.251Z,30.10
2018-07-19T09:54:45.529Z,30.30
2018-07-19T09:57:15.821Z,30.40
2018-07-19T09:59:46.290Z,30.50
2018-07-19T10:02:16.619Z,30.60
2018-07-19T10:04:46.921Z,30.90
2018-07-19T10:07:17.245Z,30.90
2018-07-19T10:09:47.791Z,30.90
2018-07-19T10:12:18.257Z,30.90
2018-07-19T10:14:49.165Z,31.00
2018-07-19T10:17:19.564Z,30.90
2018-07-19T10:19:49.894Z,31.20
2018-07-19T10:22:20.187Z,31.40
2018-07-19T10:24:50.881Z,31.50
2018-07-19T10:27:21.174Z,31.70
2018-07-19T10:29:51.550Z,32.00
2018-07-19T10:32:21.959Z,32.30
2018-07-19T10:34:52.526Z,32.50
2018-07-19T10:37:22.867Z,32.70
2018-07-19T10:39:53.295Z,32.50
2018-07-19T10:42:23.694Z,32.50
2018-07-19T10:44:53.978Z,32.50
2018-07-19T10:47:24.318Z,32.40
2018-07-19T10:49:55.046Z,32.40
2018-07-19T10:52:25.614Z,32.40
2018-07-19T10:54:55.958Z,32.40
2018-07-19T10:57:26.938Z,32.20
2018-07-19T10:59:57.390Z,32.20
2018-07-19T11:02:27.656Z,32.20
2018-07-19T11:04:57.902Z,32.40
2018-07-19T11:07:28.224Z,32.70
2018-07-19T11:09:58.495Z,32.80
2018-07-19T11:12:28.763Z,33.00
2018-07-19T11:14:59.023Z,33.50
2018-07-19T11:17:31.586Z,33.90
2018-07-19T11:20:01.858Z,34.30
2018-07-19T11:22:32.206Z,34.60
2018-07-19T11:27:32.419Z,34.90
2018-07-19T11:30:02.651Z,35.20
2018-07-19T11:32:33.027Z,35.50
2018-07-19T11:35:03.501Z,35.50
2018-07-19T11:37:33.860Z,35.60
2018-07-19T11:40:04.150Z,35.80
2018-07-19T11:42:35.127Z,35.70
2018-07-19T11:45:05.751Z,35.70
2018-07-19T11:47:36.106Z,35.80
2018-07-19T11:50:06.873Z,35.80
2018-07-19T11:52:38.901Z,36.20
2018-07-19T11:58:16.386Z,36.30
2018-07-19T12:00:46.808Z,36.30
2018-07-19T12:06:01.416Z,37.00
2018-07-19T12:08:31.938Z,37.00
2018-07-19T12:11:02.199Z,37.30
2018-07-19T12:13:32.521Z,37.10
2018-07-19T12:16:02.791Z,36.90
2018-07-19T12:18:33.223Z,36.50
2018-07-19T12:21:03.556Z,35.90
2018-07-19T12:23:33.833Z,35.50
2018-07-19T12:26:04.106Z,35.30
2018-07-19T12:28:34.977Z,35.40
2018-07-19T12:31:05.724Z,35.80
2018-07-19T12:33:36.035Z,36.40
2018-07-19T12:36:06.958Z,36.20
2018-07-19T12:38:37.330Z,35.80
2018-07-19T12:41:07.898Z,36.00
2018-07-19T12:43:38.213Z,36.00
2018-07-19T12:48:38.394Z,36.70
2018-07-19T12:51:08.644Z,36.90
2018-07-19T12:53:39.249Z,36.90
2018-07-19T12:56:09.666Z,36.90
2018-07-19T12:58:40.022Z,36.40
2018-07-19T13:01:10.338Z,36.70
2018-07-19T13:03:40.794Z,37.20
2018-07-19T13:06:11.106Z,37.60
2018-07-19T13:08:41.361Z,37.90
2018-07-19T13:11:11.655Z,38.10
2018-07-19T13:13:42.081Z,38.10
2018-07-19T13:16:12.556Z,38.40
2018-07-19T13:18:42.918Z,38.40
2018-07-19T13:21:13.246Z,38.20
2018-07-19T13:23:43.554Z,38.40
2018-07-19T13:26:13.801Z,38.90
2018-07-19T13:28:44.082Z,39.20
2018-07-19T13:31:14.322Z,38.90
2018-07-19T13:33:44.835Z,39.00
2018-07-19T13:36:15.127Z,39.30
2018-07-19T13:38:45.410Z,39.30
2018-07-19T13:41:15.899Z,39.30
2018-07-19T13:43:46.208Z,39.70
2018-07-19T13:46:17.784Z,40.10
2018-07-19T13:48:48.082Z,39.80
2018-07-19T13:54:38.366Z,39.90
2018-07-19T13:57:08.736Z,39.60
2018-07-19T13:59:53.942Z,39.60
2018-07-19T14:02:24.287Z,40.00
2018-07-19T14:04:54.583Z,40.10
2018-07-19T14:07:24.905Z,40.20
2018-07-19T14:09:55.346Z,40.40
2018-07-19T14:12:25.840Z,40.10
2018-07-19T14:15:02.217Z,40.10
2018-07-19T14:17:32.536Z,40.40
2018-07-19T14:20:03.534Z,40.40
2018-07-19T14:22:35.641Z,40.40
2018-07-19T14:25:20.263Z,40.00
2018-07-19T14:27:50.754Z,39.90
2018-07-19T14:30:21.160Z,39.90
2018-07-19T14:32:53.975Z,40.00
2018-07-19T14:35:24.396Z,40.10
2018-07-19T14:37:54.934Z,40.00
2018-07-19T14:40:25.364Z,40.60
2018-07-19T14:42:56.199Z,40.80
2018-07-19T14:45:29.636Z,40.10
2018-07-19T14:48:02.142Z,39.60
2018-07-19T14:50:47.068Z,39.50
2018-07-19T14:53:18.589Z,39.60
2018-07-19T14:55:48.910Z,39.50
2018-07-19T14:58:22.025Z,39.40
2018-07-19T15:00:52.529Z,39.40
2018-07-19T15:03:23.202Z,39.40
2018-07-19T15:05:53.920Z,39.40
2018-07-19T15:08:24.228Z,39.30
2018-07-19T15:10:54.521Z,39.10
2018-07-19T15:13:25.107Z,38.90
2018-07-19T15:15:55.403Z,38.40
2018-07-19T15:18:25.770Z,38.20
2018-07-19T15:20:56.040Z,38.40
2018-07-19T15:23:26.350Z,38.20
2018-07-19T15:25:57.087Z,38.00
2018-07-19T15:28:27.470Z,38.10
2018-07-19T15:30:57.734Z,38.20
2018-07-19T15:33:28.047Z,38.30
2018-07-19T15:35:58.334Z,38.10
2018-07-19T15:38:28.613Z,37.80
2018-07-19T15:40:58.923Z,37.80
2018-07-19T15:43:29.406Z,37.90
2018-07-19T15:45:59.742Z,38.20
2018-07-19T15:48:30.018Z,38.50
2018-07-19T15:51:00.329Z,38.50
2018-07-19T15:53:30.615Z,38.20
2018-07-19T15:56:01.023Z,37.90
2018-07-19T15:58:31.329Z,37.60
2018-07-19T16:01:01.661Z,37.30
2018-07-19T16:03:31.919Z,36.90
2018-07-19T16:06:02.282Z,36.80
2018-07-19T16:08:33.130Z,36.80
2018-07-19T16:11:03.634Z,36.80
2018-07-19T16:13:33.909Z,36.80
2018-07-19T16:16:04.234Z,36.70
2018-07-19T16:18:34.511Z,36.70
2018-07-19T16:21:04.825Z,36.60
2018-07-19T16:23:35.102Z,36.60
2018-07-19T16:26:05.941Z,36.80
2018-07-19T16:28:36.379Z,36.70
2018-07-19T16:31:06.856Z,36.60
2018-07-19T16:33:37.326Z,36.60
2018-07-19T16:36:07.630Z,36.50
2018-07-19T16:41:08.337Z,35.70
2018-07-19T16:43:38.725Z,35.20
2018-07-19T16:46:09.131Z,34.60
2018-07-19T16:48:39.402Z,34.00
2018-07-19T16:51:09.749Z,33.70
2018-07-19T16:53:40.112Z,33.30
2018-07-19T16:56:10.482Z,32.90
2018-07-19T16:58:40.808Z,32.90
2018-07-19T17:01:11.120Z,33.00
2018-07-19T17:03:41.375Z,33.10
2018-07-19T17:06:12.432Z,33.30
2018-07-19T17:08:42.791Z,33.30
2018-07-19T17:11:13.074Z,32.90
2018-07-19T17:13:43.425Z,32.50
2018-07-19T17:16:13.695Z,31.90
2018-07-19T17:18:44.362Z,31.40
2018-07-19T17:21:14.770Z,30.90
2018-07-19T17:23:46.675Z,30.50
2018-07-19T17:26:17.005Z,30.10
2018-07-19T17:28:48.706Z,29.80
2018-07-19T17:31:19.263Z,29.60
2018-07-19T17:33:49.537Z,29.40
2018-07-19T17:36:19.858Z,29.20
2018-07-19T17:38:50.176Z,29.00
2018-07-19T17:41:20.625Z,28.90
2018-07-19T17:43:51.641Z,28.70
2018-07-19T17:46:22.053Z,28.60
2018-07-19T17:48:52.733Z,28.40
2018-07-19T17:51:23.189Z,28.20
2018-07-19T17:53:54.378Z,28.10
2018-07-19T17:56:24.789Z,28.00
2018-07-19T17:58:55.054Z,27.80
2018-07-19T18:01:34.101Z,27.60
2018-07-19T18:04:04.843Z,27.40
2018-07-19T18:06:35.174Z,27.10
2018-07-19T18:09:08.563Z,26.90
2018-07-19T18:11:39.239Z,26.70
2018-07-19T18:14:09.522Z,26.40
2018-07-19T18:16:39.907Z,26.20
2018-07-19T18:19:10.215Z,26.00
2018-07-19T18:21:40.569Z,25.80
2018-07-19T18:24:10.960Z,25.70
2018-07-19T18:26:41.365Z,25.40
2018-07-19T18:29:11.603Z,25.30
2018-07-19T18:31:41.894Z,25.10
2018-07-19T18:34:12.248Z,25.00
2018-07-19T18:36:42.851Z,25.00
2018-07-19T18:39:13.390Z,24.80
2018-07-19T18:41:43.959Z,24.60
2018-07-19T18:44:14.275Z,24.50
2018-07-19T18:46:45.237Z,24.50
2018-07-19T18:51:46.103Z,24.30
2018-07-19T18:54:16.430Z,24.20
2018-07-19T18:56:46.794Z,24.00
2018-07-19T18:59:17.148Z,23.90
2018-07-19T19:01:47.454Z,23.80
2018-07-19T19:04:17.741Z,23.70
2018-07-19T19:06:51.442Z,23.60
2018-07-19T19:09:21.742Z,23.50
2018-07-19T19:11:51.999Z,23.40
2018-07-19T19:14:23.630Z,23.30
2018-07-19T19:16:53.922Z,23.20
2018-07-19T19:19:24.306Z,23.10
2018-07-19T19:21:54.631Z,22.90
2018-07-19T19:24:24.923Z,22.80
2018-07-19T19:26:55.172Z,22.80
2018-07-19T19:29:25.839Z,22.70
2018-07-19T19:31:56.139Z,22.70
2018-07-19T19:34:26.513Z,22.60
2018-07-19T19:36:56.797Z,22.50
2018-07-19T19:39:27.110Z,22.40
2018-07-19T19:41:57.394Z,22.40
2018-07-19T19:44:29.770Z,22.20
2018-07-19T19:47:02.154Z,22.10
2018-07-19T19:49:32.466Z,21.90
2018-07-19T19:52:02.725Z,21.90
2018-07-19T19:54:33.081Z,21.80
2018-07-19T19:57:03.331Z,21.80
2018-07-19T19:59:33.637Z,21.70
2018-07-19T20:02:03.943Z,21.70
2018-07-19T20:04:34.492Z,21.50
2018-07-19T20:07:05.190Z,21.40
2018-07-19T20:09:36.031Z,21.20
2018-07-19T20:12:08.484Z,21.10
2018-07-19T20:14:38.935Z,21.00
2018-07-19T20:17:09.250Z,21.00
2018-07-19T20:19:39.974Z,21.00
2018-07-19T20:22:10.257Z,20.90
2018-07-19T20:24:41.336Z,20.90
2018-07-19T20:27:11.578Z,20.90
2018-07-19T20:29:42.019Z,20.80
2018-07-19T20:32:13.656Z,20.70
2018-07-19T20:34:44.708Z,20.50
2018-07-19T20:37:14.975Z,20.20
2018-07-19T20:39:45.604Z,20.20
2018-07-19T20:42:15.926Z,20.10
2018-07-19T20:44:46.244Z,20.10
2018-07-19T20:47:16.686Z,19.90
2018-07-19T20:49:47.109Z,19.80
2018-07-19T20:52:17.448Z,19.70
2018-07-19T20:54:47.728Z,19.60
2018-07-19T20:57:17.975Z,19.60
2018-07-19T20:59:48.221Z,19.60
2018-07-19T21:02:18.849Z,19.60
2018-07-19T21:04:49.352Z,19.50
2018-07-19T21:07:19.899Z,19.40
2018-07-19T21:12:20.442Z,19.40
2018-07-19T21:14:51.144Z,19.40
2018-07-19T21:17:21.474Z,19.40
2018-07-19T21:19:51.999Z,19.50
2018-07-19T21:22:22.440Z,19.50
2018-07-19T21:24:53.295Z,19.40
2018-07-19T21:27:23.665Z,19.30
2018-07-19T21:29:54.250Z,19.30
2018-07-19T21:32:24.653Z,19.30
2018-07-19T21:34:54.962Z,19.10
2018-07-19T21:37:25.739Z,19.00
2018-07-19T21:39:56.166Z,18.90
2018-07-19T21:42:28.542Z,18.80
2018-07-19T21:44:58.814Z,18.70
2018-07-19T21:47:29.705Z,18.70
2018-07-19T21:50:01.150Z,18.60
2018-07-19T21:52:32.738Z,18.40
2018-07-19T21:55:08.450Z,18.50
2018-07-19T21:57:41.188Z,18.50
2018-07-19T22:00:13.246Z,18.50
2018-07-19T22:02:44.893Z,18.40
2018-07-19T22:05:15.830Z,18.40
2018-07-19T22:07:46.806Z,18.40
2018-07-19T22:10:18.407Z,18.40
2018-07-19T22:12:49.727Z,18.30
2018-07-19T22:15:21.134Z,18.20
2018-07-19T22:17:52.031Z,18.20
2018-07-19T22:20:24.255Z,18.30
2018-07-19T22:22:55.742Z,18.30
2018-07-19T22:25:27.192Z,18.20
2018-07-19T22:27:58.170Z,18.10
2018-07-19T22:30:29.437Z,18.00
2018-07-19T22:33:00.278Z,17.90
2018-07-19T22:35:31.657Z,17.80
2018-07-19T22:38:03.028Z,17.80
2018-07-19T22:40:34.987Z,17.80
2018-07-19T22:43:06.152Z,17.80
2018-07-19T22:45:37.366Z,17.90
2018-07-19T22:48:08.901Z,17.80
2018-07-19T22:50:40.667Z,17.80
2018-07-19T22:53:11.776Z,17.90
2018-07-19T22:55:43.016Z,17.80
2018-07-19T22:58:14.333Z,17.80
2018-07-19T23:00:45.923Z,17.80
2018-07-19T23:03:16.546Z,17.70
2018-07-19T23:05:48.566Z,17.70
2018-07-19T23:08:21.460Z,17.70
2018-07-19T23:10:54.834Z,17.60
2018-07-19T23:13:26.006Z,17.60
2018-07-19T23:15:57.631Z,17.50
2018-07-19T23:18:29.377Z,17.50
2018-07-19T23:21:00.699Z,17.50
2018-07-19T23:23:31.943Z,17.50
2018-07-19T23:26:03.011Z,17.60
2018-07-19T23:31:03.266Z,17.70
2018-07-19T23:33:33.606Z,17.60
2018-07-19T23:36:07.621Z,17.60
2018-07-19T23:38:48.276Z,17.60
2018-07-19T23:41:23.777Z,17.60
2018-07-19T23:43:58.196Z,17.50
2018-07-19T23:46:34.640Z,17.50
2018-07-19T23:49:07.751Z,17.50
2018-07-19T23:51:39.078Z,17.50
2018-07-19T23:54:09.457Z,17.60
2018-07-19T23:56:39.913Z,17.60
2018-07-19T23:59:10.301Z,17.70
